Latest Weather Observations for Neptune Island

IDS60801

Issued at 5:05 pm CDT Thursday 27 November 2014 (issued every 30 minutes, with the page automatically refreshed every 10 minutes)

About weather observations | Map of weather stations | Latest weather observations for SA | Other Formats
Station Details ID: 018115 Name: NEPTUNE ISLAND Lat: -35.34 Lon: 136.12 Height: 32.0 m
Data from the previous 72 hours. | See also: Recent months at Neptune Island
Date/Time
CDT
Temp
°C
App
Temp
°C
Dew
Point
Rel
Hum
%
Delta-T
°C
Wind Press
QNH
hPa
Press
MSL
hPa
Rain
since 9 am
mm
Dir
 
Spd
km/h
Gust
km/h
Spd
kts
Gust
kts
27/05:00pm 19.5 15.6 13.2 67 3.6 SSE 26 30 14 16 1021.8 1021.7 0.0
27/04:30pm 19.5 16.5 12.7 65 3.8 SSE 20 26 11 14 1021.8 1021.7 0.0
27/04:00pm 19.9 16.9 12.7 63 4.1 SSE 20 22 11 12 1022.0 1021.9 0.0
27/03:30pm 20.6 17.9 13.6 64 4.0 SSE 20 26 11 14 1022.2 1022.1 0.0
27/03:00pm 20.2 17.2 12.7 62 4.2 SE 20 24 11 13 1022.6 1022.5 0.0
27/02:30pm 20.3 17.2 12.3 60 4.5 ESE 20 22 11 12 1022.9 1022.8 0.0
27/02:00pm 19.6 16.2 12.6 64 3.9 E 22 26 12 14 1023.2 1023.1 0.0
27/01:30pm 19.4 15.2 12.4 64 3.9 E 26 30 14 16 1023.3 1023.2 0.0
27/01:00pm 19.3 15.0 12.1 63 4.0 E 26 32 14 17 1023.6 1023.5 0.0
27/12:30pm 20.4 15.8 12.4 60 4.5 E 28 35 15 19 1023.5 1023.4 0.0
27/12:00pm 19.4 14.1 12.4 64 3.9 E 32 37 17 20 1023.6 1023.5 0.0
27/11:30am 19.5 14.2 12.5 64 3.9 E 32 39 17 21 1023.7 1023.6 0.0
27/11:00am 19.5 14.0 12.3 63 4.0 E 33 41 18 22 1023.8 1023.7 0.0
27/10:30am 18.7 13.2 12.0 65 3.7 E 32 39 17 21 1024.0 1023.9 0.0
27/10:00am 18.0 12.5 11.8 67 3.4 E 32 39 17 21 1024.2 1024.1 0.0
27/09:30am 17.5 12.0 12.0 70 3.0 E 32 39 17 21 1024.4 1024.3 0.0
27/09:00am 16.9 11.3 11.6 71 2.9 E 32 39 17 21 1024.4 1024.3 0.0
27/08:30am 16.5 10.9 11.4 72 2.7 E 32 37 17 20 1024.2 1024.1 0.0
27/08:00am 16.4 10.9 12.0 75 2.4 E 32 37 17 20 1024.0 1023.9 0.0
27/07:30am 16.0 10.8 11.6 75 2.4 E 30 39 16 21 1023.9 1023.8 0.0
27/07:00am 15.6 10.4 11.6 77 2.2 E 30 39 16 21 1023.5 1023.4 0.0
27/06:30am 15.4 11.0 11.6 78 2.0 E 26 35 14 19 1023.5 1023.4 0.0
27/06:00am 15.6 10.1 12.0 79 2.0 E 32 39 17 21 1023.1 1023.0 0.0
27/05:30am 15.5 10.1 12.1 80 1.8 E 32 39 17 21 1022.7 1022.6 0.0
27/05:00am 15.4 9.8 12.0 80 1.8 ESE 33 43 18 23 1022.5 1022.4 0.0
27/04:30am 15.3 9.9 12.1 81 1.7 ESE 32 39 17 21 1022.3 1022.2 0.0
27/04:00am 15.5 10.1 12.3 81 1.8 ESE 32 39 17 21 1022.2 1022.1 0.0
27/03:30am 15.4 9.7 11.8 79 1.9 ESE 33 41 18 22 1022.1 1022.0 0.0
27/03:00am 15.4 9.8 11.6 78 2.0 ESE 32 37 17 20 1022.3 1022.2 0.0
27/02:30am 15.4 9.6 11.4 77 2.1 ESE 33 39 18 21 1022.6 1022.5 0.0
27/02:00am 15.5 10.7 11.5 77 2.2 ESE 28 33 15 18 1023.1 1023.0 0.0
27/01:30am 15.3 11.0 11.9 80 1.8 SE 26 30 14 16 1023.5 1023.4 0.0
27/01:00am 15.3 11.3 11.9 80 1.8 SE 24 32 13 17 1024.0 1023.9 0.0
27/12:30am 15.8 11.9 12.0 78 2.1 SE 24 28 13 15 1024.3 1024.2 0.0
27/12:00am 16.1 12.5 11.9 76 2.3 ESE 22 26 12 14 1024.5 1024.4 0.0
 
Date/Time
CDT
Temp
°C
App
Temp
°C
Dew
Point
Rel
Hum
%
Delta-T
°C
Wind Press
QNH
hPa
Press
MSL
hPa
Rain
since 9 am
mm
Dir
 
Spd
km/h
Gust
km/h
Spd
kts
Gust
kts
26/11:30pm 15.9 12.5 11.3 74 2.5 ESE 20 28 11 15 1024.5 1024.4 0.0
26/11:00pm 16.1 11.3 11.7 75 2.4 ESE 28 35 15 19 1024.3 1024.2 0.0
26/10:30pm 16.0 10.4 11.6 75 2.4 ESE 32 41 17 22 1024.1 1024.0 0.0
26/10:00pm 16.2 10.7 12.0 76 2.3 SE 32 41 17 22 1023.9 1023.8 0.0
26/09:30pm 15.9 10.4 11.7 76 2.3 SE 32 39 17 21 1023.7 1023.6 0.0
26/09:00pm 16.1 10.0 11.9 76 2.3 SSE 35 43 19 23 1023.4 1023.3 0.0
26/08:30pm 16.1 9.7 11.9 76 2.3 SSE 37 44 20 24 1023.3 1023.2 0.0
26/08:00pm 16.3 10.2 11.7 74 2.5 SSE 35 43 19 23 1023.3 1023.2 0.0
26/07:30pm 16.4 9.9 11.8 74 2.5 SSE 37 44 20 24 1023.0 1022.9 0.0
26/07:00pm 16.6 9.9 12.2 75 2.4 SSE 39 44 21 24 1022.9 1022.8 0.0
26/06:30pm 16.9 10.1 12.0 73 2.7 S 39 44 21 24 1022.7 1022.6 0.0
26/06:00pm 17.1 11.5 12.0 72 2.8 S 33 39 18 21 1022.8 1022.7 0.0
26/05:30pm 16.8 11.6 11.5 71 2.9 S 30 35 16 19 1022.9 1022.8 0.0
26/05:00pm 17.3 11.7 11.6 69 3.1 S 32 39 17 21 1022.7 1022.6 0.0
26/04:30pm 17.8 13.0 11.6 67 3.4 S 28 35 15 19 1023.1 1023.0 0.0
26/04:00pm 17.9 13.9 11.7 67 3.4 S 24 30 13 16 1023.3 1023.2 0.0
26/03:30pm 17.7 13.9 11.3 66 3.5 S 22 26 12 14 1023.5 1023.4 0.0
26/03:00pm 17.5 13.8 11.5 68 3.3 S 22 26 12 14 1023.7 1023.6 0.0
26/02:30pm 17.7 14.1 11.7 68 3.3 S 22 28 12 15 1023.7 1023.6 0.0
26/02:00pm 17.7 14.5 11.3 66 3.5 SSE 19 26 10 14 1024.0 1023.9 0.0
26/01:30pm 17.2 12.8 11.7 70 3.0 SSE 26 32 14 17 1024.3 1024.2 0.0
26/01:00pm 16.3 12.3 10.4 68 3.1 SSE 22 28 12 15 1024.3 1024.2 0.0
26/12:30pm 17.1 13.5 10.7 66 3.4 SSE 20 24 11 13 1024.5 1024.4 0.0
26/12:00pm 17.0 13.4 9.9 63 3.7 SSE 19 22 10 12 1024.7 1024.6 0.0
26/11:30am 17.2 14.3 9.6 61 4.0 SSE 15 19 8 10 1024.9 1024.8 0.0
26/11:00am 16.8 13.5 9.7 63 3.7 SSE 17 20 9 11 1024.8 1024.7 0.0
26/10:30am 16.2 13.3 9.6 65 3.4 S 15 19 8 10 1025.0 1024.9 0.0
26/10:00am 15.9 13.3 9.3 65 3.4 SSE 13 17 7 9 1025.0 1024.9 0.0
26/09:30am 16.0 13.0 9.4 65 3.4 SSE 15 20 8 11 1024.8 1024.7 0.0
26/09:00am 15.6 12.2 9.1 65 3.3 SSE 17 20 9 11 1024.8 1024.7 0.0
26/08:30am 15.5 12.7 8.5 63 3.5 SSE 13 17 7 9 1024.3 1024.2 0.0
26/08:00am 14.9 10.7 8.4 65 3.3 S 20 24 11 13 1023.9 1023.8 0.0
26/07:30am 14.8 10.3 8.7 67 3.1 SSE 22 26 12 14 1023.5 1023.4 0.0
26/07:00am 14.7 11.1 8.4 66 3.2 SE 17 22 9 12 1023.1 1023.0 0.0
26/06:30am 14.4 10.3 8.8 69 2.8 SSE 20 28 11 15 1022.7 1022.6 0.0
26/06:00am 13.9 10.2 8.1 68 2.9 SE 17 22 9 12 1022.3 1022.2 0.0
26/05:30am 13.9 9.9 8.1 68 2.9 SSE 19 26 10 14 1022.0 1021.9 0.0
26/05:00am 14.1 10.2 8.5 69 2.8 SSE 19 24 10 13 1021.9 1021.8 0.0
26/04:30am 14.2 9.7 8.6 69 2.8 SSE 22 26 12 14 1021.7 1021.6 0.0
26/04:00am 14.3 10.4 8.7 69 2.8 SSE 19 24 10 13 1021.8 1021.7 0.0
26/03:30am 14.2 10.0 8.2 67 3.0 SSE 20 28 11 15 1022.0 1021.9 0.0
26/03:00am 14.2 10.1 7.9 66 3.1 SSE 19 24 10 13 1021.9 1021.8 0.0
26/02:30am 14.4 9.8 8.1 66 3.1 S 22 28 12 15 1022.3 1022.2 0.0
26/02:00am 14.3 9.2 7.8 65 3.2 S 24 30 13 16 1022.6 1022.5 0.0
26/01:30am 14.4 9.4 8.1 66 3.1 S 24 30 13 16 1022.8 1022.7 0.0
26/01:00am 14.5 9.9 8.2 66 3.2 S 22 28 12 15 1023.0 1022.9 0.0
26/12:30am 14.4 9.3 7.7 64 3.3 S 24 28 13 15 1023.3 1023.2 0.0
26/12:00am 14.6 10.1 8.5 67 3.1 S 22 26 12 14 1023.4 1023.3 0.0
 
Date/Time
CDT
Temp
°C
App
Temp
°C
Dew
Point
Rel
Hum
%
Delta-T
°C
Wind Press
QNH
hPa
Press
MSL
hPa
Rain
since 9 am
mm
Dir
 
Spd
km/h
Gust
km/h
Spd
kts
Gust
kts
25/11:30pm 14.7 10.2 8.6 67 3.1 SSE 22 28 12 15 1023.5 1023.4 0.0
25/11:00pm 14.8 10.3 8.7 67 3.1 SSE 22 28 12 15 1023.7 1023.6 0.0
25/10:30pm 14.6 9.6 7.9 64 3.3 S 24 30 13 16 1023.7 1023.6 0.0
25/10:00pm 14.9 9.6 8.6 66 3.2 S 26 33 14 18 1023.6 1023.5 0.0
25/09:30pm 15.0 10.2 8.7 66 3.2 S 24 30 13 16 1023.5 1023.4 0.0
25/09:00pm 15.1 9.8 8.3 64 3.4 S 26 30 14 16 1023.4 1023.3 0.0
25/08:30pm 15.1 10.1 7.9 62 3.6 S 24 30 13 16 1023.4 1023.3 0.0
25/08:00pm 15.4 10.4 7.9 61 3.8 S 24 30 13 16 1023.4 1023.3 0.0
25/07:30pm 15.6 10.8 7.4 58 4.1 S 22 28 12 15 1023.2 1023.1 0.0
25/07:00pm 15.4 10.2 7.4 59 4.0 S 24 32 13 17 1022.8 1022.7 0.0
25/06:30pm 16.5 11.6 8.5 59 4.1 S 24 30 13 16 1022.7 1022.6 0.0
25/06:00pm 16.0 10.9 7.7 58 4.1 S 24 30 13 16 1022.3 1022.2 0.0
25/05:30pm 16.1 11.0 7.8 58 4.2 S 24 28 13 15 1022.5 1022.4 0.0
25/05:00pm 17.4 12.6 8.8 57 4.4 S 24 33 13 18 1022.4 1022.3 0.0
25/04:30pm 17.5 12.9 8.1 54 4.8 SSW 22 26 12 14 1022.7 1022.6 0.0
25/04:00pm 18.7 14.6 8.7 52 5.2 SSW 20 26 11 14 1022.9 1022.8 0.0
25/03:30pm 19.0 14.9 8.6 51 5.4 SSW 20 26 11 14 1023.1 1023.0 0.0
25/03:00pm 19.2 14.9 9.4 53 5.2 SSW 22 28 12 15 1023.2 1023.1 0.0
25/02:30pm 18.7 14.7 8.9 53 5.1 SSW 20 26 11 14 1023.2 1023.1 0.0
25/02:00pm 18.5 14.6 8.7 53 5.1 SSW 19 24 10 13 1023.3 1023.2 0.0
25/01:30pm 17.7 14.0 9.3 58 4.4 SSW 19 24 10 13 1023.4 1023.3 0.0
25/01:00pm 18.1 14.6 8.9 55 4.8 SW 17 20 9 11 1023.5 1023.4 0.0
25/12:30pm 18.2 15.1 9.0 55 4.8 SW 15 20 8 11 1023.6 1023.5 0.0
25/12:00pm 17.6 13.7 8.5 55 4.7 SW 19 20 10 11 1023.7 1023.6 0.0
25/11:30am 17.1 13.8 8.0 55 4.6 SW 15 19 8 10 1023.8 1023.7 0.0
25/11:00am 17.4 14.4 9.3 59 4.2 SW 15 22 8 12 1023.7 1023.6 0.0
25/10:30am 15.8 12.6 8.3 61 3.8 WSW 15 19 8 10 1023.7 1023.6 0.0
25/10:00am 16.3 13.4 8.3 59 4.1 WSW 13 17 7 9 1023.7 1023.6 0.0
25/09:30am 16.7 12.9 7.4 54 4.6 SW 17 20 9 11 1023.6 1023.5 0.0
25/09:00am 16.4 12.6 7.6 56 4.4 SW 17 20 9 11 1023.3 1023.2 0.0
25/08:30am 15.5 12.6 8.0 61 3.8 SSW 13 17 7 9 1023.0 1022.9 0.0
25/08:00am 15.0 11.4 8.5 65 3.3 SSW 17 20 9 11 1022.7 1022.6 0.0
25/07:30am 14.9 10.6 9.3 69 2.9 SW 22 28 12 15 1022.2 1022.1 0.0
25/07:00am 14.5 9.4 9.3 71 2.7 SW 26 33 14 18 1021.9 1021.8 0.0
25/06:30am 14.6 11.1 8.8 68 2.9 SSW 17 20 9 11 1021.6 1021.5 0.0
25/06:00am 14.6 10.8 9.0 69 2.8 SSW 19 24 10 13 1021.3 1021.2 0.0
25/05:30am 14.5 10.5 8.9 69 2.8 SSW 20 26 11 14 1020.9 1020.8 0.0
25/05:00am 14.5 10.5 9.1 70 2.8 SSW 20 26 11 14 1020.7 1020.6 0.0
25/04:30am 14.4 9.6 8.8 69 2.8 SSW 24 32 13 17 1020.6 1020.5 0.0
25/04:00am 14.4 9.5 8.6 68 2.9 SSW 24 30 13 16 1020.5 1020.4 0.0
25/03:30am 14.4 8.8 8.8 69 2.8 SSW 28 33 15 18 1020.3 1020.2 0.0
25/03:00am 14.5 8.5 8.7 68 2.9 SSW 30 35 16 19 1020.3 1020.2 0.0
25/02:30am 14.7 8.4 8.9 68 2.9 SSW 32 39 17 21 1020.1 1020.0 0.0
25/02:00am 14.8 9.0 9.4 70 2.8 SSW 30 37 16 20 1020.1 1020.0 0.0
25/01:30am 14.9 8.6 9.7 71 2.7 SSW 33 39 18 21 1020.1 1020.0 0.0
25/01:00am 15.1 8.7 9.5 69 2.9 SSW 33 43 18 23 1020.2 1020.1 0.0
25/12:30am 14.8 8.6 9.2 69 2.9 SSW 32 35 17 19 1020.2 1020.1 0.0
25/12:00am 15.0 8.6 9.4 69 2.9 SSW 33 43 18 23 1020.4 1020.3 0.0
 
Date/Time
CDT
Temp
°C
App
Temp
°C
Dew
Point
Rel
Hum
%
Delta-T
°C
Wind Press
QNH
hPa
Press
MSL
hPa
Rain
since 9 am
mm
Dir
 
Spd
km/h
Gust
km/h
Spd
kts
Gust
kts
24/11:30pm 15.0 8.5 9.1 68 3.0 SSW 33 41 18 22 1020.3 1020.2 0.0
24/11:00pm 15.1 8.2 9.0 67 3.1 SW 35 41 19 22 1020.1 1020.0 0.0
24/10:30pm 15.3 8.9 9.4 68 3.0 SW 33 43 18 23 1020.3 1020.2 0.0
24/10:00pm 15.4 8.6 9.1 66 3.2 SSW 35 41 19 22 1020.0 1019.9 0.0
24/09:30pm 15.6 9.4 9.5 67 3.2 SW 32 37 17 20 1019.7 1019.6 0.0
24/09:00pm 15.5 8.6 8.7 64 3.5 SW 35 43 19 23 1019.3 1019.2 0.0
24/08:30pm 15.8 8.6 9.2 65 3.4 SW 37 46 20 25 1019.0 1018.9 0.0
24/08:00pm 15.7 8.8 8.9 64 3.5 SW 35 41 19 22 1018.4 1018.3 0.0
24/07:30pm 16.2 9.1 9.6 65 3.4 SW 37 46 20 25 1018.0 1017.9 0.0
24/07:00pm 16.2 8.9 8.7 61 3.8 SW 37 46 20 25 1017.7 1017.6 0.0
24/06:30pm 16.5 8.5 9.0 61 3.9 SW 41 48 22 26 1017.4 1017.3 0.0
24/06:00pm 16.8 8.9 9.2 61 3.9 SW 41 48 22 26 1017.2 1017.1 0.0
24/05:30pm 17.0 9.4 8.9 59 4.2 SW 39 46 21 25 1017.1 1017.0 0.0

Other Formats:

Comma delimited format used in spreadsheet applications
http://www.bom.gov.au/fwo/IDS60801/IDS60801.94804.axf

JavaScript Object Notation format (JSON) in row-major order
http://www.bom.gov.au/fwo/IDS60801/IDS60801.94804.json